Time;durP1;ratioP1;P1;durP2;ratioP2;P2;SDS_P1;SDS_P2;PMS_P1;PMS_P2;Temp;Humidity;BMP_temperature;BMP_pressure;BME280_temperature;BME280_humidity;BME280_pressure;Samples;Min_cycle;Max_cycle;Signal;HPM_P1;HPM_P2
2022/08/18 00:00:15;;;;;;;35.33;31.52;;;;;;;;;;4978310;28;20212;-68
2022/08/18 00:02:40;;;;;;;35.40;29.73;;;;;;;;;;4994568;28;20220;-69
2022/08/18 00:05:06;;;;;;;35.00;29.33;;;;;;;;;;4992275;28;20292;-69
2022/08/18 00:07:31;;;;;;;38.35;29.38;;;;;;;;;;4983800;28;20316;-69
2022/08/18 00:09:57;;;;;;;32.35;27.70;;;;;;;;;;4990709;28;20255;-69
2022/08/18 00:12:25;;;;;;;29.40;25.83;;;;;;;;;;4994313;28;20213;-69
2022/08/18 00:14:50;;;;;;;28.33;25.23;;;;;;;;;;4992721;28;20683;-69
2022/08/18 00:17:15;;;;;;;29.27;24.45;;;;;;;;;;4984091;28;20228;-68
2022/08/18 00:19:40;;;;;;;30.45;24.67;;;;;;;;;;4980858;28;20413;-69
2022/08/18 00:22:06;;;;;;;28.52;24.70;;;;;;;;;;4988904;28;20224;-68
2022/08/18 00:24:31;;;;;;;29.92;24.40;;;;;;;;;;4995015;28;20200;-69
2022/08/18 00:26:57;;;;;;;31.25;24.25;;;;;;;;;;4994384;28;20718;-69
2022/08/18 00:29:23;;;;;;;29.38;24.02;;;;;;;;;;4989320;28;20213;-69
2022/08/18 00:31:48;;;;;;;26.25;23.42;;;;;;;;;;4992186;28;20205;-69
2022/08/18 00:34:13;;;;;;;29.48;25.13;;;;;;;;;;4998503;28;20256;-69
2022/08/18 00:36:40;;;;;;;30.30;24.00;;;;;;;;;;4991038;28;20210;-69
2022/08/18 00:39:05;;;;;;;31.77;25.27;;;;;;;;;;4993171;28;20328;-68
2022/08/18 00:41:30;;;;;;;29.88;24.92;;;;;;;;;;5002438;28;20866;-68
2022/08/18 00:43:57;;;;;;;27.75;24.85;;;;;;;;;;4995074;28;20227;-68
2022/08/18 00:46:24;;;;;;;29.38;25.20;;;;;;;;;;4987022;28;20237;-68
2022/08/18 00:48:51;;;;;;;31.98;26.48;;;;;;;;;;4992224;28;20216;-68
2022/08/18 00:51:18;;;;;;;29.33;26.10;;;;;;;;;;4999509;28;20208;-68
2022/08/18 00:53:45;;;;;;;29.05;24.98;;;;;;;;;;5000979;28;20231;-68
2022/08/18 00:56:18;;;;;;;30.67;25.65;;;;;;;;;;5000268;28;20240;-68
2022/08/18 00:58:45;;;;;;;32.20;27.75;;;;;;;;;;4999574;28;20211;-69
2022/08/18 01:01:11;;;;;;;28.45;24.33;;;;;;;;;;5001171;28;20763;-69
2022/08/18 01:03:38;;;;;;;31.33;26.25;;;;;;;;;;4997990;28;20265;-68
2022/08/18 01:06:06;;;;;;;28.85;25.70;;;;;;;;;;4985940;28;20217;-69
2022/08/18 01:08:31;;;;;;;30.83;26.85;;;;;;;;;;4979080;28;20474;-68
2022/08/18 01:10:57;;;;;;;28.25;25.13;;;;;;;;;;4993537;28;20228;-68
2022/08/18 01:13:24;;;;;;;26.38;23.60;;;;;;;;;;4999097;28;20359;-68
2022/08/18 01:15:50;;;;;;;24.52;21.83;;;;;;;;;;5000000;28;20718;-68
2022/08/18 01:23:55;;;;;;;30.20;24.67;;;;;;;;;;5007046;28;20203;-68
2022/08/18 01:26:21;;;;;;;28.95;24.58;;;;;;;;;;5013398;28;20275;-68
2022/08/18 01:28:48;;;;;;;29.88;25.42;;;;;;;;;;5015739;28;20251;-68
2022/08/18 01:31:28;;;;;;;28.27;24.83;;;;;;;;;;5015772;28;20169;-69
2022/08/18 01:33:53;;;;;;;29.77;25.33;;;;;;;;;;5015301;28;20169;-69
2022/08/18 01:36:19;;;;;;;29.65;25.65;;;;;;;;;;5015696;28;20260;-69
2022/08/18 01:38:46;;;;;;;28.02;24.35;;;;;;;;;;5016618;28;20168;-69
2022/08/18 01:41:11;;;;;;;28.65;24.70;;;;;;;;;;5015251;28;20215;-69
2022/08/18 01:43:37;;;;;;;27.17;23.85;;;;;;;;;;5014812;28;20918;-69
2022/08/18 01:46:03;;;;;;;31.15;25.35;;;;;;;;;;5014867;28;20235;-69
2022/08/18 01:48:32;;;;;;;27.17;23.75;;;;;;;;;;5016349;28;20168;-69
2022/08/18 01:50:58;;;;;;;28.30;24.58;;;;;;;;;;5015393;28;20255;-69
2022/08/18 01:53:23;;;;;;;28.17;23.52;;;;;;;;;;4997172;28;20248;-69
2022/08/18 01:55:49;;;;;;;32.72;24.98;;;;;;;;;;4996693;28;20687;-69
2022/08/18 01:58:14;;;;;;;30.35;23.83;;;;;;;;;;4995842;28;20177;-69
2022/08/18 02:00:40;;;;;;;27.23;24.10;;;;;;;;;;4996580;28;20170;-69
2022/08/18 02:03:07;;;;;;;26.92;23.08;;;;;;;;;;4996184;28;20256;-69
2022/08/18 02:05:35;;;;;;;28.27;25.20;;;;;;;;;;4995760;28;20257;-69
2022/08/18 02:08:01;;;;;;;29.63;26.02;;;;;;;;;;4995190;28;20233;-70
2022/08/18 02:10:26;;;;;;;28.55;25.33;;;;;;;;;;4994992;28;20633;-69
2022/08/18 02:12:51;;;;;;;30.30;25.35;;;;;;;;;;4995456;28;20289;-68
2022/08/18 02:15:17;;;;;;;30.40;24.50;;;;;;;;;;5007054;28;20555;-68
2022/08/18 02:17:43;;;;;;;27.17;21.42;;;;;;;;;;5015393;28;20173;-68
2022/08/18 02:20:09;;;;;;;30.38;22.48;;;;;;;;;;5013836;28;20171;-68
2022/08/18 02:22:35;;;;;;;26.08;22.33;;;;;;;;;;5015709;28;20226;-69
2022/08/18 02:25:00;;;;;;;28.00;22.63;;;;;;;;;;5015483;28;20278;-68
2022/08/18 02:27:25;;;;;;;25.73;20.30;;;;;;;;;;5014643;28;20211;-68
2022/08/18 02:29:51;;;;;;;23.75;19.98;;;;;;;;;;5015517;28;20182;-69
2022/08/18 02:32:16;;;;;;;23.35;19.23;;;;;;;;;;5015125;28;20173;-69
2022/08/18 02:34:41;;;;;;;22.52;19.10;;;;;;;;;;5014208;28;20632;-70
2022/08/18 02:37:07;;;;;;;24.70;20.15;;;;;;;;;;5015333;28;20211;-69
2022/08/18 02:39:33;;;;;;;22.25;18.40;;;;;;;;;;5015259;28;20564;-69
2022/08/18 02:41:58;;;;;;;21.38;17.10;;;;;;;;;;5015026;28;20536;-69
2022/08/18 02:44:23;;;;;;;22.98;17.48;;;;;;;;;;5015324;28;20640;-69
2022/08/18 02:46:53;;;;;;;18.90;16.83;;;;;;;;;;5014288;28;20628;-69
2022/08/18 02:49:18;;;;;;;19.40;17.15;;;;;;;;;;5014643;28;20196;-69
2022/08/18 02:51:43;;;;;;;22.55;16.92;;;;;;;;;;5014762;28;20199;-69
2022/08/18 02:54:10;;;;;;;19.33;17.13;;;;;;;;;;5014286;28;20263;-69
2022/08/18 02:56:35;;;;;;;16.75;14.95;;;;;;;;;;5015019;28;20640;-68
2022/08/18 02:59:06;;;;;;;19.25;15.38;;;;;;;;;;5015118;28;20212;-69
2022/08/18 03:01:34;;;;;;;21.15;14.55;;;;;;;;;;5014158;28;20180;-69
2022/08/18 03:04:00;;;;;;;16.33;13.35;;;;;;;;;;5014981;28;20223;-68
2022/08/18 03:06:25;;;;;;;15.55;12.45;;;;;;;;;;5015190;28;20205;-68
2022/08/18 03:08:51;;;;;;;16.05;13.43;;;;;;;;;;5013923;28;20223;-69
2022/08/18 03:11:17;;;;;;;16.77;12.57;;;;;;;;;;5014813;28;20241;-69
2022/08/18 03:13:43;;;;;;;15.98;13.80;;;;;;;;;;5013414;28;20253;-69
2022/08/18 03:16:08;;;;;;;15.15;13.45;;;;;;;;;;5012715;28;20647;-69
2022/08/18 03:18:33;;;;;;;17.88;13.55;;;;;;;;;;5014787;28;20219;-68
2022/08/18 03:21:05;;;;;;;16.20;13.50;;;;;;;;;;5014778;28;20176;-69
2022/08/18 03:23:30;;;;;;;15.93;12.98;;;;;;;;;;5013874;28;20157;-68
2022/08/18 03:25:55;;;;;;;14.90;13.30;;;;;;;;;;5014586;28;20256;-69
2022/08/18 03:28:21;;;;;;;15.40;13.32;;;;;;;;;;5014342;28;20673;-69
2022/08/18 03:30:46;;;;;;;17.60;14.40;;;;;;;;;;5013701;28;20172;-69
2022/08/18 03:33:11;;;;;;;16.75;13.50;;;;;;;;;;5014644;28;20165;-68
2022/08/18 03:35:37;;;;;;;16.10;14.20;;;;;;;;;;5014021;28;20161;-70
2022/08/18 03:38:03;;;;;;;17.63;14.95;;;;;;;;;;5004750;28;20177;-69
2022/08/18 03:40:28;;;;;;;18.45;13.93;;;;;;;;;;4994187;28;20643;-69
2022/08/18 03:42:54;;;;;;;15.80;13.18;;;;;;;;;;4989950;28;20215;-69
2022/08/18 03:45:19;;;;;;;14.93;13.02;;;;;;;;;;4976017;28;20530;-69
2022/08/18 03:47:44;;;;;;;16.70;13.70;;;;;;;;;;4989310;28;20216;-69
2022/08/18 03:50:10;;;;;;;15.43;13.32;;;;;;;;;;4993815;28;20608;-69
2022/08/18 03:52:36;;;;;;;16.90;13.70;;;;;;;;;;4998868;28;20553;-69
2022/08/18 03:55:01;;;;;;;16.38;13.52;;;;;;;;;;4997307;28;20251;-69
2022/08/18 03:57:29;;;;;;;17.77;13.35;;;;;;;;;;4989930;28;20181;-69
2022/08/18 03:59:55;;;;;;;19.70;14.07;;;;;;;;;;5000573;28;20291;-69
2022/08/18 04:02:20;;;;;;;15.15;12.68;;;;;;;;;;4994186;28;20216;-69
2022/08/18 04:04:45;;;;;;;16.95;14.20;;;;;;;;;;4997721;28;20211;-69
2022/08/18 04:07:13;;;;;;;16.23;13.70;;;;;;;;;;4990247;28;20208;-69
2022/08/18 04:09:38;;;;;;;17.63;13.52;;;;;;;;;;4979959;28;20809;-70
2022/08/18 04:12:10;;;;;;;17.85;13.73;;;;;;;;;;4988758;28;20181;-70
2022/08/18 04:14:36;;;;;;;16.35;12.85;;;;;;;;;;4999706;28;20215;-68
2022/08/18 04:17:01;;;;;;;17.88;13.85;;;;;;;;;;5004586;28;20271;-67
2022/08/18 04:19:26;;;;;;;15.88;12.68;;;;;;;;;;5012983;28;20219;-64
2022/08/18 04:21:52;;;;;;;19.50;14.40;;;;;;;;;;5012459;28;20415;-67
2022/08/18 04:24:18;;;;;;;15.95;13.60;;;;;;;;;;5013100;28;20197;-68
2022/08/18 04:26:44;;;;;;;14.90;13.15;;;;;;;;;;5010930;28;20219;-67
2022/08/18 04:29:10;;;;;;;17.65;14.93;;;;;;;;;;5012379;28;20430;-70
2022/08/18 04:31:35;;;;;;;17.23;13.35;;;;;;;;;;5016877;28;20169;-71
2022/08/18 04:34:01;;;;;;;17.75;12.90;;;;;;;;;;5011691;28;20168;-69
2022/08/18 04:36:26;;;;;;;17.58;14.32;;;;;;;;;;5012002;28;20175;-68
2022/08/18 04:38:52;;;;;;;20.10;14.50;;;;;;;;;;5010629;28;20247;-71
2022/08/18 04:41:17;;;;;;;20.10;15.13;;;;;;;;;;5011747;28;20235;-70
2022/08/18 04:43:42;;;;;;;18.83;14.55;;;;;;;;;;5019730;28;20169;-71
2022/08/18 04:46:08;;;;;;;20.17;15.32;;;;;;;;;;5017150;28;20180;-70
2022/08/18 04:48:34;;;;;;;17.52;15.00;;;;;;;;;;5021512;28;20183;-71
2022/08/18 04:51:05;;;;;;;17.73;14.50;;;;;;;;;;5013357;28;20172;-72
2022/08/18 04:53:43;;;;;;;20.27;15.38;;;;;;;;;;5017590;28;20179;-71
2022/08/18 04:56:11;;;;;;;20.60;15.52;;;;;;;;;;5021722;28;20506;-71
2022/08/18 04:58:37;;;;;;;18.55;15.07;;;;;;;;;;5017969;28;20219;-71
2022/08/18 05:01:02;;;;;;;24.58;16.25;;;;;;;;;;5021824;28;20619;-70
2022/08/18 05:03:28;;;;;;;16.83;13.90;;;;;;;;;;5023028;28;20175;-71
2022/08/18 05:05:53;;;;;;;20.42;13.43;;;;;;;;;;5021236;28;20189;-70
2022/08/18 05:08:19;;;;;;;17.63;13.05;;;;;;;;;;5022217;28;20196;-71
2022/08/18 05:10:46;;;;;;;15.23;13.48;;;;;;;;;;5021939;28;20244;-70
2022/08/18 05:13:13;;;;;;;18.38;13.10;;;;;;;;;;5013797;28;20173;-71
2022/08/18 05:15:39;;;;;;;20.70;13.95;;;;;;;;;;5012164;28;20176;-69
2022/08/18 05:18:04;;;;;;;19.23;14.07;;;;;;;;;;5012808;28;20191;-69
2022/08/18 05:20:30;;;;;;;17.50;13.43;;;;;;;;;;5012994;28;20161;-70
2022/08/18 05:22:56;;;;;;;17.50;13.30;;;;;;;;;;5011737;28;20698;-68
2022/08/18 05:25:21;;;;;;;17.02;13.95;;;;;;;;;;5012762;28;20173;-68
2022/08/18 05:27:46;;;;;;;18.77;13.80;;;;;;;;;;5012738;28;20567;-67
2022/08/18 05:30:13;;;;;;;19.20;14.32;;;;;;;;;;5011984;28;20553;-66
2022/08/18 05:32:40;;;;;;;18.10;13.60;;;;;;;;;;5012850;28;20257;-69
2022/08/18 05:35:08;;;;;;;16.70;13.57;;;;;;;;;;5011798;28;20169;-70
2022/08/18 05:37:37;;;;;;;17.58;14.13;;;;;;;;;;5010479;28;20179;-71
2022/08/18 05:40:03;;;;;;;19.52;14.68;;;;;;;;;;5013066;28;20175;-70
2022/08/18 05:42:29;;;;;;;22.27;15.70;;;;;;;;;;5012060;28;20690;-71
2022/08/18 05:44:55;;;;;;;18.85;14.63;;;;;;;;;;5014218;28;20169;-72
2022/08/18 05:47:27;;;;;;;21.85;15.30;;;;;;;;;;5017157;28;20205;-71
2022/08/18 05:49:52;;;;;;;20.80;15.50;;;;;;;;;;5014352;28;20219;-66
2022/08/18 05:52:21;;;;;;;19.77;15.05;;;;;;;;;;5020300;28;20184;-71
2022/08/18 05:57:36;;;;;;;17.90;14.77;;;;;;;;;;5019522;28;20238;-72
2022/08/18 06:00:04;;;;;;;18.83;15.77;;;;;;;;;;5020361;28;20188;-70
2022/08/18 06:02:31;;;;;;;21.25;15.75;;;;;;;;;;5020744;28;20263;-66
2022/08/18 06:04:59;;;;;;;23.77;16.08;;;;;;;;;;5025456;28;20484;-67
2022/08/18 06:07:26;;;;;;;21.02;16.23;;;;;;;;;;5032235;28;20250;-67
2022/08/18 06:09:53;;;;;;;19.13;15.80;;;;;;;;;;5033969;28;20243;-68
2022/08/18 06:12:20;;;;;;;26.13;17.45;;;;;;;;;;5033622;28;20179;-69
2022/08/18 06:14:45;;;;;;;19.90;15.07;;;;;;;;;;5034505;28;20176;-67
2022/08/18 06:17:14;;;;;;;19.05;15.20;;;;;;;;;;5035530;28;20168;-71
2022/08/18 06:19:50;;;;;;;18.80;14.70;;;;;;;;;;5033941;28;20164;-68
2022/08/18 06:22:20;;;;;;;22.23;15.77;;;;;;;;;;5035563;28;20184;-67
2022/08/18 06:24:53;;;;;;;18.17;14.75;;;;;;;;;;5034825;28;20176;-69
2022/08/18 06:27:22;;;;;;;19.65;12.80;;;;;;;;;;5020768;28;20200;-68
2022/08/18 06:30:06;;;;;;;16.38;14.02;;;;;;;;;;5014221;28;20165;-69
2022/08/18 06:34:16;;;;;;;26.45;18.45;;;;;;;;;;5090701;28;20484;-68
2022/08/18 06:36:47;;;;;;;33.47;21.63;;;;;;;;;;5069002;28;20171;-67
2022/08/18 06:39:25;;;;;;;25.55;20.60;;;;;;;;;;5088052;28;20264;-68
2022/08/18 06:41:52;;;;;;;54.65;25.85;;;;;;;;;;5090535;28;20580;-67
2022/08/18 06:46:15;;;;;;;26.27;21.63;;;;;;;;;;5090005;28;20754;-67
2022/08/18 06:48:47;;;;;;;29.23;20.02;;;;;;;;;;5070107;28;20183;-66
2022/08/18 06:51:13;;;;;;;21.98;15.57;;;;;;;;;;5069025;28;20166;-70
2022/08/18 06:53:52;;;;;;;19.45;14.65;;;;;;;;;;5068162;28;20159;-69
2022/08/18 06:56:20;;;;;;;22.63;15.40;;;;;;;;;;5070264;28;20194;-71
2022/08/18 06:58:46;;;;;;;20.90;14.00;;;;;;;;;;5068612;28;20209;-67
2022/08/18 07:01:11;;;;;;;36.65;17.73;;;;;;;;;;5069597;28;20171;-68
2022/08/18 07:03:38;;;;;;;16.77;12.70;;;;;;;;;;5070042;28;20185;-68
2022/08/18 07:06:05;;;;;;;19.33;13.43;;;;;;;;;;5070137;28;20206;-67
2022/08/18 07:08:32;;;;;;;14.80;12.35;;;;;;;;;;5063891;28;20174;-68
2022/08/18 07:11:09;;;;;;;15.55;12.05;;;;;;;;;;5067405;28;20193;-68
2022/08/18 07:13:36;;;;;;;15.73;12.18;;;;;;;;;;5068399;28;20175;-68
2022/08/18 07:16:22;;;;;;;13.93;11.85;;;;;;;;;;5069159;28;20223;-68
2022/08/18 07:18:47;;;;;;;12.40;10.10;;;;;;;;;;5069599;28;20174;-68
2022/08/18 07:21:24;;;;;;;14.77;10.13;;;;;;;;;;5068735;28;20159;-70
2022/08/18 07:23:56;;;;;;;14.88;11.48;;;;;;;;;;5069046;28;20202;-70
2022/08/18 07:26:22;;;;;;;13.75;10.73;;;;;;;;;;5067974;28;20166;-70
2022/08/18 07:28:48;;;;;;;13.05;10.93;;;;;;;;;;5068559;28;20175;-71
2022/08/18 07:31:25;;;;;;;12.32;10.10;;;;;;;;;;5068177;28;20198;-72
2022/08/18 07:33:54;;;;;;;17.20;10.25;;;;;;;;;;5069409;28;20198;-72
2022/08/18 07:36:20;;;;;;;13.80;9.23;;;;;;;;;;5067356;28;20622;-72
2022/08/18 07:38:48;;;;;;;11.88;7.82;;;;;;;;;;5067315;28;20178;-71
2022/08/18 07:41:14;;;;;;;10.45;6.47;;;;;;;;;;5067969;28;20217;-71
2022/08/18 07:43:40;;;;;;;11.40;6.70;;;;;;;;;;5067290;28;20163;-71
2022/08/18 07:46:12;;;;;;;9.77;6.22;;;;;;;;;;5088303;28;20688;-71
2022/08/18 07:48:38;;;;;;;9.43;6.22;;;;;;;;;;5071052;28;20174;-71
2022/08/18 07:51:22;;;;;;;9.30;5.85;;;;;;;;;;5070226;28;20166;-70
2022/08/18 07:53:58;;;;;;;10.43;6.20;;;;;;;;;;5089003;28;20169;-71
2022/08/18 07:56:44;;;;;;;10.77;6.30;;;;;;;;;;5063436;28;20167;-71
2022/08/18 07:59:11;;;;;;;9.43;5.50;;;;;;;;;;5057766;28;20212;-71
2022/08/18 08:01:42;;;;;;;8.35;5.85;;;;;;;;;;5075513;28;20205;-71
2022/08/18 08:04:15;;;;;;;8.50;6.07;;;;;;;;;;5056701;28;20193;-71
2022/08/18 08:06:42;;;;;;;9.30;5.60;;;;;;;;;;5075291;28;20625;-71
2022/08/18 08:09:17;;;;;;;9.07;6.22;;;;;;;;;;5057212;28;20637;-71
2022/08/18 08:11:51;;;;;;;7.72;5.50;;;;;;;;;;5056556;28;20193;-71
2022/08/18 08:14:23;;;;;;;8.40;5.97;;;;;;;;;;5075670;28;20490;-71
2022/08/18 08:16:49;;;;;;;10.73;5.60;;;;;;;;;;5057423;28;20224;-71
2022/08/18 08:19:15;;;;;;;8.32;5.95;;;;;;;;;;5056833;28;20277;-68
2022/08/18 08:21:43;;;;;;;10.25;5.45;;;;;;;;;;5075259;28;20177;-68
2022/08/18 08:24:14;;;;;;;8.50;6.00;;;;;;;;;;5056787;28;20614;-70
2022/08/18 08:26:46;;;;;;;9.82;5.90;;;;;;;;;;5056752;28;20171;-72
2022/08/18 08:29:21;;;;;;;8.50;5.97;;;;;;;;;;5062661;28;20166;-71
2022/08/18 08:31:47;;;;;;;9.95;5.40;;;;;;;;;;5076326;28;20178;-70
2022/08/18 08:34:14;;;;;;;9.20;5.80;;;;;;;;;;5095327;28;20162;-71
2022/08/18 08:36:41;;;;;;;10.82;6.40;;;;;;;;;;5077004;28;20591;-70
2022/08/18 08:39:09;;;;;;;9.80;6.10;;;;;;;;;;5058365;28;20185;-72
2022/08/18 08:41:38;;;;;;;8.07;5.70;;;;;;;;;;5056984;28;20167;-71
2022/08/18 08:44:03;;;;;;;10.27;5.88;;;;;;;;;;5074742;28;20167;-74
2022/08/18 08:46:29;;;;;;;8.18;5.93;;;;;;;;;;5073618;28;20536;-71
2022/08/18 08:49:14;;;;;;;9.35;5.32;;;;;;;;;;5056795;28;20178;-71
2022/08/18 08:51:42;;;;;;;9.10;5.53;;;;;;;;;;5073715;28;20617;-68
2022/08/18 08:54:14;;;;;;;9.13;5.68;;;;;;;;;;5055727;28;20232;-71
2022/08/18 08:56:43;;;;;;;8.90;5.10;;;;;;;;;;5056716;28;20154;-73
2022/08/18 08:59:10;;;;;;;8.30;5.22;;;;;;;;;;5074571;28;20253;-72
2022/08/18 09:01:47;;;;;;;9.60;5.22;;;;;;;;;;5072902;28;20640;-71
2022/08/18 09:04:13;;;;;;;7.60;4.95;;;;;;;;;;5056503;28;20551;-73
2022/08/18 09:06:45;;;;;;;7.85;4.93;;;;;;;;;;5055742;28;20171;-71
2022/08/18 09:09:10;;;;;;;9.52;5.18;;;;;;;;;;5073504;28;20159;-71
2022/08/18 09:11:47;;;;;;;8.25;5.20;;;;;;;;;;5074186;28;20622;-71
2022/08/18 09:14:17;;;;;;;7.82;5.30;;;;;;;;;;5055843;28;20217;-70
2022/08/18 09:16:47;;;;;;;10.20;5.80;;;;;;;;;;5056163;28;20698;-70
2022/08/18 09:19:29;;;;;;;9.52;6.07;;;;;;;;;;5056342;28;20250;-70
2022/08/18 09:22:07;;;;;;;10.82;5.35;;;;;;;;;;5055677;28;20162;-70
2022/08/18 09:24:40;;;;;;;9.27;5.55;;;;;;;;;;5073758;28;20252;-70
2022/08/18 09:27:12;;;;;;;8.40;5.40;;;;;;;;;;5073601;28;20528;-70
2022/08/18 09:29:37;;;;;;;8.70;5.50;;;;;;;;;;5055514;28;20190;-70
2022/08/18 09:32:18;;;;;;;9.07;5.75;;;;;;;;;;5073722;28;20525;-71
2022/08/18 09:34:52;;;;;;;8.20;5.50;;;;;;;;;;5073149;28;20166;-72
2022/08/18 09:37:18;;;;;;;8.90;5.72;;;;;;;;;;5055656;28;20170;-71
2022/08/18 09:42:42;;;;;;;8.52;5.85;;;;;;;;;;5057693;28;20731;-70
2022/08/18 09:45:09;;;;;;;8.40;5.10;;;;;;;;;;5073406;28;20230;-66
2022/08/18 09:47:34;;;;;;;10.13;5.40;;;;;;;;;;5073162;28;20257;-67
2022/08/18 09:50:02;;;;;;;9.40;6.40;;;;;;;;;;5072701;28;20336;-67
2022/08/18 09:52:32;;;;;;;9.00;5.50;;;;;;;;;;5073479;28;20177;-67
2022/08/18 09:54:57;;;;;;;9.05;5.68;;;;;;;;;;5074043;28;20163;-67
2022/08/18 09:57:25;;;;;;;10.10;5.20;;;;;;;;;;5073237;28;20185;-67
2022/08/18 09:59:52;;;;;;;9.07;4.93;;;;;;;;;;5056075;28;20174;-67
2022/08/18 10:02:27;;;;;;;7.25;4.82;;;;;;;;;;5073705;28;20250;-67
2022/08/18 10:05:11;;;;;;;9.40;5.50;;;;;;;;;;5073165;28;20193;-67
2022/08/18 10:07:37;;;;;;;8.48;5.00;;;;;;;;;;5072841;28;20174;-67
2022/08/18 10:10:06;;;;;;;9.18;5.47;;;;;;;;;;5071847;28;21111;-67
2022/08/18 10:12:35;;;;;;;7.20;4.45;;;;;;;;;;5055753;28;20169;-67
2022/08/18 10:15:01;;;;;;;7.60;4.60;;;;;;;;;;5073446;28;20159;-67
2022/08/18 10:17:33;;;;;;;6.13;4.30;;;;;;;;;;5073128;28;20166;-67
2022/08/18 10:19:59;;;;;;;7.75;4.50;;;;;;;;;;5073302;28;20165;-68
2022/08/18 10:22:33;;;;;;;7.55;4.18;;;;;;;;;;5073368;28;20170;-67
2022/08/18 10:24:58;;;;;;;5.38;4.22;;;;;;;;;;5054782;28;20255;-67
2022/08/18 10:27:36;;;;;;;6.13;4.28;;;;;;;;;;5073236;28;20183;-67
2022/08/18 10:30:02;;;;;;;6.97;4.82;;;;;;;;;;5055287;28;20231;-68
2022/08/18 10:32:35;;;;;;;9.70;4.40;;;;;;;;;;5052943;28;20163;-75
2022/08/18 10:35:00;;;;;;;7.22;4.10;;;;;;;;;;5071101;28;20170;-70
2022/08/18 10:37:30;;;;;;;10.63;5.10;;;;;;;;;;5072412;28;20178;-68
2022/08/18 10:39:57;;;;;;;10.38;5.47;;;;;;;;;;5072047;28;20617;-67
2022/08/18 10:42:27;;;;;;;8.05;5.00;;;;;;;;;;5055386;28;20163;-68
2022/08/18 10:44:57;;;;;;;9.52;4.90;;;;;;;;;;5041795;28;20224;-68
2022/08/18 10:47:23;;;;;;;9.25;5.55;;;;;;;;;;5031609;28;20222;-66
2022/08/18 10:49:49;;;;;;;8.73;4.95;;;;;;;;;;5032705;28;20168;-66
2022/08/18 10:52:14;;;;;;;10.52;5.20;;;;;;;;;;5030639;28;20964;-66
2022/08/18 10:54:46;;;;;;;8.77;4.70;;;;;;;;;;5032821;28;20210;-66
2022/08/18 10:57:13;;;;;;;6.53;4.90;;;;;;;;;;5031776;28;20221;-66
2022/08/18 10:59:42;;;;;;;7.80;4.38;;;;;;;;;;5030924;28;20172;-66
2022/08/18 11:02:30;;;;;;;6.95;3.95;;;;;;;;;;5032811;28;20218;-66
2022/08/18 11:04:55;;;;;;;8.02;4.43;;;;;;;;;;5032597;28;20215;-66
2022/08/18 11:07:25;;;;;;;9.10;4.75;;;;;;;;;;5030648;28;20176;-66
2022/08/18 11:09:51;;;;;;;10.13;5.68;;;;;;;;;;5032785;28;20168;-67
2022/08/18 11:12:33;;;;;;;6.97;4.60;;;;;;;;;;5031017;28;20629;-67
2022/08/18 11:15:05;;;;;;;9.02;4.82;;;;;;;;;;5030448;28;20180;-67
2022/08/18 11:17:39;;;;;;;7.63;4.57;;;;;;;;;;5031207;28;20184;-67
2022/08/18 11:20:05;;;;;;;7.93;4.68;;;;;;;;;;5030503;28;20180;-67
2022/08/18 11:22:31;;;;;;;7.28;4.50;;;;;;;;;;5031099;28;20230;-67
2022/08/18 11:24:56;;;;;;;7.20;3.92;;;;;;;;;;5032489;28;20679;-67
2022/08/18 11:27:22;;;;;;;7.18;4.45;;;;;;;;;;5030383;28;20176;-67
2022/08/18 11:29:48;;;;;;;6.07;3.63;;;;;;;;;;5032291;28;20187;-67
2022/08/18 11:32:13;;;;;;;6.55;3.88;;;;;;;;;;5033782;28;20623;-67
2022/08/18 11:34:43;;;;;;;5.88;3.40;;;;;;;;;;5035243;28;20621;-67
2022/08/18 11:37:10;;;;;;;5.03;3.70;;;;;;;;;;5035744;28;20180;-67
2022/08/18 11:39:41;;;;;;;5.22;3.50;;;;;;;;;;5035056;28;20167;-67
2022/08/18 11:42:07;;;;;;;7.95;3.38;;;;;;;;;;5034089;28;20274;-67
2022/08/18 11:44:33;;;;;;;6.63;3.22;;;;;;;;;;5038807;28;20223;-66
2022/08/18 11:47:12;;;;;;;8.00;3.78;;;;;;;;;;5055651;28;20183;-67
2022/08/18 11:49:37;;;;;;;5.22;3.50;;;;;;;;;;5073036;28;20186;-67
2022/08/18 11:52:14;;;;;;;4.97;3.58;;;;;;;;;;5073999;28;20171;-67
2022/08/18 11:54:41;;;;;;;6.78;3.58;;;;;;;;;;5075331;28;20175;-67
2022/08/18 11:57:25;;;;;;;5.80;3.63;;;;;;;;;;5073783;28;20281;-67
2022/08/18 11:59:51;;;;;;;6.32;3.60;;;;;;;;;;5075346;28;20194;-67
2022/08/18 12:02:17;;;;;;;6.03;3.78;;;;;;;;;;5055689;28;20167;-67
2022/08/18 12:04:42;;;;;;;5.97;3.20;;;;;;;;;;5054099;28;20210;-67
2022/08/18 12:07:09;;;;;;;5.88;3.50;;;;;;;;;;5037342;28;20197;-74
2022/08/18 12:09:36;;;;;;;4.70;3.10;;;;;;;;;;5054696;28;20199;-75
2022/08/18 12:12:04;;;;;;;6.40;3.85;;;;;;;;;;5055622;28;20167;-72
2022/08/18 12:14:30;;;;;;;6.45;3.80;;;;;;;;;;5055343;28;20251;-74
2022/08/18 12:16:56;;;;;;;7.82;4.00;;;;;;;;;;5052355;28;20237;-73
2022/08/18 12:19:22;;;;;;;7.47;3.92;;;;;;;;;;5055087;28;20159;-73
2022/08/18 12:21:49;;;;;;;7.93;3.90;;;;;;;;;;5054795;28;20171;-73
2022/08/18 12:24:19;;;;;;;5.45;3.60;;;;;;;;;;5053088;28;20166;-72
2022/08/18 12:26:45;;;;;;;6.28;3.47;;;;;;;;;;5055135;28;20187;-73
2022/08/18 12:29:10;;;;;;;5.45;3.33;;;;;;;;;;5055239;28;20167;-71
2022/08/18 12:31:35;;;;;;;7.60;3.67;;;;;;;;;;5053472;28;20583;-72
2022/08/18 12:34:01;;;;;;;4.78;3.40;;;;;;;;;;5053625;28;20176;-73
2022/08/18 12:36:26;;;;;;;5.88;3.20;;;;;;;;;;5054565;28;20607;-73
2022/08/18 12:38:51;;;;;;;5.03;3.20;;;;;;;;;;5052960;28;20164;-73
2022/08/18 12:41:17;;;;;;;5.95;3.30;;;;;;;;;;5054829;28;20484;-73
2022/08/18 12:43:42;;;;;;;5.95;3.30;;;;;;;;;;5054927;28;20174;-71
2022/08/18 12:46:08;;;;;;;5.72;3.30;;;;;;;;;;5070795;28;20226;-73
2022/08/18 12:48:33;;;;;;;4.25;2.80;;;;;;;;;;5074323;28;20665;-73
2022/08/18 12:50:58;;;;;;;5.18;3.20;;;;;;;;;;5056538;28;20167;-73
2022/08/18 12:53:24;;;;;;;6.35;3.15;;;;;;;;;;5073848;28;20170;-73
2022/08/18 12:55:50;;;;;;;6.10;3.50;;;;;;;;;;5056797;28;20193;-71
2022/08/18 12:58:15;;;;;;;5.20;3.25;;;;;;;;;;5074343;28;20621;-73
2022/08/18 13:00:41;;;;;;;5.82;3.67;;;;;;;;;;5073764;28;20193;-70
2022/08/18 13:03:06;;;;;;;5.30;3.10;;;;;;;;;;5072771;28;20200;-69
2022/08/18 13:05:31;;;;;;;4.53;3.17;;;;;;;;;;5055398;28;20203;-74
2022/08/18 13:07:57;;;;;;;4.47;2.70;;;;;;;;;;5023319;28;20220;-69
2022/08/18 13:10:22;;;;;;;3.45;2.80;;;;;;;;;;5017849;28;20184;-70
2022/08/18 13:12:47;;;;;;;5.45;2.78;;;;;;;;;;5019548;28;20179;-70
2022/08/18 13:15:13;;;;;;;4.43;3.08;;;;;;;;;;5003178;28;20199;-71
2022/08/18 13:17:38;;;;;;;4.22;2.88;;;;;;;;;;5025271;28;20229;-70
2022/08/18 13:20:05;;;;;;;5.45;2.95;;;;;;;;;;5027632;28;20180;-70
2022/08/18 13:22:31;;;;;;;5.65;3.35;;;;;;;;;;5026607;28;20728;-70
2022/08/18 13:24:56;;;;;;;6.53;3.40;;;;;;;;;;5027826;28;20623;-70
2022/08/18 13:27:21;;;;;;;5.57;3.38;;;;;;;;;;5026919;28;20626;-71
2022/08/18 13:29:47;;;;;;;5.30;3.13;;;;;;;;;;5026226;28;21015;-71
2022/08/18 13:32:13;;;;;;;6.50;3.47;;;;;;;;;;5023210;28;20867;-71
2022/08/18 13:34:38;;;;;;;4.93;3.60;;;;;;;;;;5033305;28;20592;-70
2022/08/18 13:37:04;;;;;;;7.82;3.50;;;;;;;;;;5018517;28;20212;-70
2022/08/18 13:39:30;;;;;;;6.63;3.20;;;;;;;;;;5022046;28;20215;-69
2022/08/18 13:41:55;;;;;;;5.70;3.40;;;;;;;;;;5026240;28;20214;-70
2022/08/18 13:44:21;;;;;;;5.28;3.65;;;;;;;;;;5025669;28;20957;-70
2022/08/18 13:46:47;;;;;;;6.40;3.35;;;;;;;;;;5024613;28;20563;-71
2022/08/18 13:49:12;;;;;;;6.03;3.33;;;;;;;;;;5025301;28;20266;-71
2022/08/18 13:51:38;;;;;;;5.68;3.45;;;;;;;;;;5026811;28;20794;-70
2022/08/18 13:54:04;;;;;;;6.80;3.83;;;;;;;;;;5023071;28;20694;-70
2022/08/18 13:56:29;;;;;;;4.28;2.90;;;;;;;;;;5018682;28;20966;-70
2022/08/18 13:58:54;;;;;;;5.57;3.40;;;;;;;;;;5018211;28;20223;-70
2022/08/18 14:01:19;;;;;;;7.15;3.30;;;;;;;;;;5017921;28;20223;-70
2022/08/18 14:03:45;;;;;;;6.53;3.92;;;;;;;;;;5023888;28;20212;-69
2022/08/18 14:06:11;;;;;;;7.15;3.08;;;;;;;;;;5025847;28;20228;-70
2022/08/18 14:08:36;;;;;;;5.90;3.53;;;;;;;;;;5026025;28;20636;-70
2022/08/18 14:11:01;;;;;;;5.25;3.17;;;;;;;;;;5025533;28;20917;-68
2022/08/18 14:13:27;;;;;;;5.60;3.20;;;;;;;;;;5026521;28;20211;-70
2022/08/18 14:15:53;;;;;;;6.55;3.47;;;;;;;;;;5024151;28;20227;-70
2022/08/18 14:18:18;;;;;;;5.20;2.90;;;;;;;;;;5019514;28;20247;-70
2022/08/18 14:28:55;;;;;;;5.43;2.90;;;;;;;;;;5025773;28;20253;-69
2022/08/18 14:31:21;;;;;;;5.95;3.33;;;;;;;;;;5024625;28;20566;-69
2022/08/18 14:33:46;;;;;;;7.25;3.17;;;;;;;;;;5026068;28;20421;-70
2022/08/18 14:36:12;;;;;;;6.85;3.30;;;;;;;;;;5024210;28;20326;-69
2022/08/18 14:38:37;;;;;;;6.60;3.65;;;;;;;;;;5022426;28;20232;-70
2022/08/18 14:41:03;;;;;;;6.32;3.40;;;;;;;;;;5016660;28;20854;-69
2022/08/18 14:43:28;;;;;;;7.60;3.25;;;;;;;;;;5016756;28;20211;-69
2022/08/18 14:45:53;;;;;;;7.72;3.50;;;;;;;;;;5016480;28;20219;-71
2022/08/18 14:48:21;;;;;;;6.68;3.60;;;;;;;;;;5023423;28;20216;-71
2022/08/18 14:50:48;;;;;;;7.20;3.50;;;;;;;;;;5024250;28;20207;-71
2022/08/18 14:53:14;;;;;;;7.43;3.60;;;;;;;;;;5024761;28;20278;-71